Time;durP1;ratioP1;P1;durP2;ratioP2;P2;SDS_P1;SDS_P2;PMS_P1;PMS_P2;Temp;Humidity;BMP_temperature;BMP_pressure;BME280_temperature;BME280_humidity;BME280_pressure;Samples;Min_cycle;Max_cycle;Signal;HPM_P1;HPM_P2
2024/02/13 00:01:27;;;;;;;2.65;1.33;;;6.00;99.90;;;;;;5028662;28;20021;-70
2024/02/13 00:03:53;;;;;;;0.82;0.68;;;6.00;99.90;;;;;;5028403;28;20068;-70
2024/02/13 00:06:19;;;;;;;0.98;0.77;;;6.10;99.90;;;;;;5030886;28;20061;-70
2024/02/13 00:08:46;;;;;;;1.52;1.05;;;6.10;99.90;;;;;;5030440;28;20490;-70
2024/02/13 00:11:13;;;;;;;4.38;2.45;;;5.90;99.90;;;;;;5031184;28;20049;-70
2024/02/13 00:13:39;;;;;;;1.77;1.13;;;5.90;99.90;;;;;;5028583;28;20195;-70
2024/02/13 00:16:05;;;;;;;7.72;2.03;;;5.80;99.90;;;;;;5030659;28;20029;-70
2024/02/13 00:18:33;;;;;;;0.80;0.80;;;5.70;99.90;;;;;;5033176;28;20030;-70
2024/02/13 00:20:59;;;;;;;2.85;1.30;;;5.60;99.90;;;;;;5028293;28;20029;-70
2024/02/13 00:23:25;;;;;;;1.98;1.13;;;5.60;99.90;;;;;;5024993;28;20032;-70
2024/02/13 00:25:51;;;;;;;15.85;1.65;;;5.40;99.90;;;;;;5031288;28;20375;-70
2024/02/13 00:28:19;;;;;;;3.13;1.40;;;5.30;99.90;;;;;;5030424;28;20478;-70
2024/02/13 00:30:45;;;;;;;1.70;0.98;;;5.20;99.90;;;;;;5029552;28;20116;-70
2024/02/13 00:33:13;;;;;;;2.65;1.38;;;5.20;99.90;;;;;;5025498;28;20036;-70
2024/02/13 00:35:39;;;;;;;12.80;2.83;;;5.20;99.90;;;;;;5031270;28;20021;-70
2024/02/13 00:38:06;;;;;;;1.98;1.23;;;5.10;99.90;;;;;;5028438;28;20504;-70
2024/02/13 00:40:31;;;;;;;2.85;1.58;;;5.00;99.90;;;;;;5017453;28;20285;-70
2024/02/13 00:42:57;;;;;;;4.60;1.90;;;5.00;99.90;;;;;;5034773;28;20041;-69
2024/02/13 00:45:23;;;;;;;4.55;1.13;;;5.00;99.90;;;;;;5038557;28;20028;-69
2024/02/13 00:47:49;;;;;;;1.77;1.20;;;5.00;99.90;;;;;;5033217;28;20029;-69
2024/02/13 00:50:16;;;;;;;4.18;1.50;;;4.90;99.90;;;;;;5036872;28;20021;-70
2024/02/13 00:52:42;;;;;;;10.48;1.42;;;4.90;99.90;;;;;;5036220;28;20029;-69
2024/02/13 00:55:08;;;;;;;1.67;1.02;;;5.00;99.90;;;;;;5052004;28;20594;-69
2024/02/13 00:57:37;;;;;;;9.43;3.13;;;5.00;99.90;;;;;;5036497;28;20060;-69
2024/02/13 01:00:05;;;;;;;5.75;1.15;;;5.00;99.90;;;;;;5036124;28;20017;-69
2024/02/13 01:02:31;;;;;;;3.35;1.52;;;5.00;99.90;;;;;;5032717;28;20037;-69
2024/02/13 01:04:56;;;;;;;5.55;2.15;;;4.90;99.90;;;;;;5034032;28;20040;-72
2024/02/13 01:07:22;;;;;;;3.72;1.10;;;5.00;99.90;;;;;;5019049;28;20406;-69
2024/02/13 01:09:48;;;;;;;5.93;1.77;;;5.10;99.90;;;;;;5028037;28;20041;-69
2024/02/13 01:12:14;;;;;;;3.58;1.17;;;5.10;99.90;;;;;;5036906;28;20393;-70
2024/02/13 01:14:40;;;;;;;3.08;1.70;;;5.10;99.90;;;;;;5018301;28;20029;-69
2024/02/13 01:17:05;;;;;;;1.83;1.10;;;5.20;99.90;;;;;;5035312;28;20186;-69
2024/02/13 01:19:31;;;;;;;11.50;2.03;;;5.30;99.90;;;;;;5036378;28;20033;-69
2024/02/13 01:21:57;;;;;;;6.25;2.05;;;5.30;99.90;;;;;;5035407;28;20026;-69
2024/02/13 01:24:26;;;;;;;3.78;2.03;;;5.30;99.90;;;;;;5035759;28;20033;-69
2024/02/13 01:26:53;;;;;;;12.30;1.88;;;5.30;99.90;;;;;;5032964;28;20026;-70
2024/02/13 01:29:20;;;;;;;2.47;1.45;;;5.20;99.90;;;;;;5035722;28;20041;-70
2024/02/13 01:31:47;;;;;;;4.05;2.03;;;5.10;99.90;;;;;;5034977;28;20061;-70
2024/02/13 01:34:13;;;;;;;10.32;2.00;;;5.00;99.90;;;;;;5033706;28;20033;-70
2024/02/13 01:36:39;;;;;;;2.33;1.42;;;4.90;99.90;;;;;;5034790;28;20036;-70
2024/02/13 01:39:05;;;;;;;4.28;1.80;;;4.90;99.90;;;;;;5035348;28;20081;-70
2024/02/13 01:41:31;;;;;;;4.40;2.53;;;4.80;99.90;;;;;;5036006;28;20120;-71
2024/02/13 01:43:57;;;;;;;2.72;1.35;;;4.80;99.90;;;;;;5033386;28;20037;-69
2024/02/13 01:46:26;;;;;;;4.47;1.65;;;4.80;99.90;;;;;;5031597;28;20025;-71
2024/02/13 01:48:58;;;;;;;4.28;1.83;;;4.70;99.90;;;;;;5031844;28;20056;-70
2024/02/13 01:51:27;;;;;;;2.53;1.10;;;4.70;99.90;;;;;;5033192;28;20441;-70
2024/02/13 01:53:59;;;;;;;2.45;1.30;;;4.70;99.90;;;;;;5029338;28;20495;-70
2024/02/13 01:56:28;;;;;;;2.10;1.48;;;4.70;99.90;;;;;;5015140;28;20033;-70
2024/02/13 01:58:56;;;;;;;3.35;1.02;;;4.70;99.90;;;;;;5026475;28;20508;-69
2024/02/13 02:01:24;;;;;;;2.78;1.92;;;4.70;99.90;;;;;;5031419;28;20091;-69
2024/02/13 02:03:52;;;;;;;5.70;2.30;;;4.70;99.90;;;;;;5029588;28;20108;-70
2024/02/13 02:06:19;;;;;;;10.20;2.15;;;4.60;99.90;;;;;;5023947;28;20182;-70
2024/02/13 02:08:46;;;;;;;4.40;2.38;;;4.60;99.90;;;;;;5032112;28;20060;-70
2024/02/13 02:11:13;;;;;;;4.53;1.98;;;4.60;99.90;;;;;;5014427;28;20083;-70
2024/02/13 02:13:39;;;;;;;8.07;2.17;;;4.60;99.90;;;;;;5031105;28;20458;-70
2024/02/13 02:16:07;;;;;;;3.35;2.00;;;4.60;99.90;;;;;;5032307;28;20441;-70
2024/02/13 02:18:33;;;;;;;3.33;1.55;;;4.50;99.90;;;;;;5037361;28;20136;-70
2024/02/13 02:20:58;;;;;;;2.97;1.55;;;4.50;99.90;;;;;;5034014;28;20084;-70
2024/02/13 02:23:26;;;;;;;1.92;1.27;;;4.50;99.90;;;;;;5049726;28;20026;-70
2024/02/13 02:25:52;;;;;;;1.88;1.48;;;4.40;99.90;;;;;;5033456;28;20120;-70
2024/02/13 02:28:18;;;;;;;8.07;1.88;;;4.40;99.90;;;;;;5032151;28;20096;-70
2024/02/13 02:30:45;;;;;;;8.60;1.65;;;4.30;99.90;;;;;;5031047;28;20105;-70
2024/02/13 02:33:12;;;;;;;9.23;2.40;;;4.30;99.90;;;;;;5034476;28;20039;-70
2024/02/13 02:35:41;;;;;;;4.05;1.80;;;4.20;99.90;;;;;;5031444;28;20034;-70
2024/02/13 02:38:09;;;;;;;3.50;1.60;;;4.10;99.90;;;;;;5014939;28;20113;-70
2024/02/13 02:40:40;;;;;;;18.48;2.17;;;4.10;99.90;;;;;;5031923;28;20355;-70
2024/02/13 02:43:06;;;;;;;6.13;2.27;;;4.00;99.90;;;;;;5036073;28;20025;-70
2024/02/13 02:45:33;;;;;;;2.38;1.98;;;4.10;99.90;;;;;;5018843;28;20405;-70
2024/02/13 02:47:59;;;;;;;3.38;1.88;;;4.00;99.90;;;;;;5034840;28;20033;-70
2024/02/13 02:50:25;;;;;;;2.65;1.98;;;4.00;99.90;;;;;;5032122;28;20041;-69
2024/02/13 02:52:54;;;;;;;4.90;2.20;;;3.90;99.90;;;;;;5037825;28;20052;-69
2024/02/13 02:55:21;;;;;;;1.95;1.63;;;3.90;99.90;;;;;;5031187;28;20044;-69
2024/02/13 02:57:47;;;;;;;2.30;1.70;;;3.90;99.90;;;;;;5031498;28;20021;-69
2024/02/13 03:00:15;;;;;;;11.35;2.45;;;3.90;99.90;;;;;;5016936;28;20025;-70
2024/02/13 03:02:41;;;;;;;2.47;1.77;;;3.90;99.90;;;;;;5034422;28;20029;-70
2024/02/13 03:05:10;;;;;;;1.77;1.35;;;3.90;99.90;;;;;;5027890;28;20429;-70
2024/02/13 03:07:36;;;;;;;8.18;1.63;;;3.80;99.90;;;;;;5029004;28;20057;-69
2024/02/13 03:10:04;;;;;;;1.70;1.02;;;3.90;99.90;;;;;;5030442;28;20738;-70
2024/02/13 03:12:30;;;;;;;9.32;1.85;;;3.80;99.90;;;;;;5030147;28;20390;-70
2024/02/13 03:14:56;;;;;;;5.45;1.38;;;3.80;99.90;;;;;;5033913;28;20041;-70
2024/02/13 03:17:25;;;;;;;4.63;2.22;;;3.90;99.90;;;;;;5032381;28;20075;-70
2024/02/13 03:19:51;;;;;;;2.08;0.77;;;3.80;99.90;;;;;;5028137;28;20064;-70
2024/02/13 03:22:17;;;;;;;2.30;1.40;;;3.80;99.90;;;;;;5036738;28;20047;-70
2024/02/13 03:24:43;;;;;;;7.03;2.40;;;3.80;99.90;;;;;;5030209;28;20037;-70
2024/02/13 03:27:09;;;;;;;9.18;2.35;;;3.70;99.90;;;;;;5039197;28;20478;-70
2024/02/13 03:29:36;;;;;;;2.00;1.80;;;3.80;99.90;;;;;;5013983;28;20048;-70
2024/02/13 03:32:03;;;;;;;5.97;2.13;;;3.60;99.90;;;;;;5035981;28;20040;-69
2024/02/13 03:34:29;;;;;;;3.25;1.48;;;3.60;99.90;;;;;;5025992;28;20037;-69
2024/02/13 03:36:56;;;;;;;8.90;2.47;;;3.50;99.90;;;;;;5032474;28;20041;-69
2024/02/13 03:39:23;;;;;;;3.80;1.48;;;3.50;99.90;;;;;;5028708;28;20038;-70
2024/02/13 03:41:49;;;;;;;2.00;1.25;;;3.40;99.90;;;;;;5033294;28;20490;-70
2024/02/13 03:44:15;;;;;;;4.28;2.28;;;3.50;99.90;;;;;;5030697;28;20048;-70
2024/02/13 03:46:44;;;;;;;2.42;1.63;;;3.50;99.90;;;;;;5031671;28;20474;-70
2024/02/13 03:49:10;;;;;;;2.30;1.50;;;3.50;99.90;;;;;;5031901;28;20029;-70
2024/02/13 03:51:40;;;;;;;1.83;1.65;;;3.50;99.90;;;;;;5027981;28;20033;-70
2024/02/13 03:54:07;;;;;;;3.38;1.25;;;3.50;99.90;;;;;;5028705;28;20021;-70
2024/02/13 03:56:37;;;;;;;4.95;1.50;;;3.50;99.90;;;;;;5030023;28;20030;-70
2024/02/13 03:59:08;;;;;;;4.28;1.30;;;3.50;99.90;;;;;;5029550;28;20544;-70
2024/02/13 04:01:35;;;;;;;;;;;3.50;99.90;;;;;;5033624;28;20030;-70
2024/02/13 04:04:01;;;;;;;3.10;1.95;;;3.50;99.90;;;;;;5033637;28;19929;-70
2024/02/13 04:06:27;;;;;;;1.95;1.45;;;3.40;99.90;;;;;;5035364;28;20021;-70
2024/02/13 04:08:54;;;;;;;12.40;2.50;;;3.50;99.90;;;;;;5015420;28;20028;-70
2024/02/13 04:11:20;;;;;;;2.78;1.40;;;3.40;99.90;;;;;;5031821;28;20351;-70
2024/02/13 04:13:46;;;;;;;6.68;2.25;;;3.40;99.90;;;;;;5030175;28;20029;-70
2024/02/13 04:16:13;;;;;;;4.43;2.00;;;3.40;99.90;;;;;;5032473;28;20021;-70
2024/02/13 04:18:40;;;;;;;1.42;1.33;;;3.40;99.90;;;;;;5033790;28;20437;-71
2024/02/13 04:21:05;;;;;;;2.92;1.58;;;3.40;99.90;;;;;;5033174;28;20079;-71
2024/02/13 04:23:32;;;;;;;6.20;1.52;;;3.50;99.90;;;;;;5030043;28;20029;-70
2024/02/13 04:25:58;;;;;;;4.78;1.60;;;3.50;99.90;;;;;;5031145;28;20029;-71
2024/02/13 04:28:24;;;;;;;4.28;1.73;;;3.50;99.90;;;;;;5033558;28;20420;-71
2024/02/13 04:30:50;;;;;;;2.45;1.98;;;3.50;99.90;;;;;;5030416;28;20452;-71
2024/02/13 04:33:16;;;;;;;6.68;1.52;;;3.50;99.90;;;;;;5030279;28;20025;-71
2024/02/13 04:35:42;;;;;;;5.47;1.92;;;3.60;99.90;;;;;;5028869;28;20037;-70
2024/02/13 04:38:09;;;;;;;1.63;1.35;;;3.60;99.90;;;;;;5030233;28;20025;-70
2024/02/13 04:40:35;;;;;;;2.40;1.58;;;3.60;99.90;;;;;;5027399;28;20040;-69
2024/02/13 04:43:01;;;;;;;7.18;2.92;;;3.50;99.90;;;;;;5032431;28;20038;-69
2024/02/13 04:45:27;;;;;;;4.75;1.23;;;3.50;99.90;;;;;;5027780;28;20025;-70
2024/02/13 04:47:53;;;;;;;6.05;1.58;;;3.30;99.90;;;;;;5032182;28;20049;-69
2024/02/13 04:50:19;;;;;;;4.85;2.75;;;3.20;99.90;;;;;;5032222;28;20401;-69
2024/02/13 04:52:45;;;;;;;6.18;2.33;;;3.10;99.90;;;;;;5012636;28;20025;-69
2024/02/13 04:55:14;;;;;;;9.35;2.08;;;3.10;99.90;;;;;;5027950;28;20041;-70
2024/02/13 04:57:40;;;;;;;8.48;3.78;;;3.10;99.90;;;;;;5027433;28;20088;-70
2024/02/13 05:00:51;;;;;;;3.15;1.42;;;3.10;99.90;;;;;;5029715;28;20526;-70
2024/02/13 05:03:16;;;;;;;5.47;2.38;;;3.10;99.90;;;;;;5028591;28;20034;-70
2024/02/13 05:08:30;;;;;;;1.60;1.50;;;3.10;99.90;;;;;;5027737;28;20036;-70
2024/02/13 05:10:56;;;;;;;2.70;1.77;;;3.00;99.90;;;;;;5023328;28;20045;-70
2024/02/13 05:13:23;;;;;;;1.38;0.98;;;3.10;99.90;;;;;;5031130;28;20684;-70
2024/02/13 05:15:50;;;;;;;3.47;2.55;;;3.10;99.90;;;;;;5028453;28;20486;-70
2024/02/13 05:18:17;;;;;;;1.70;1.27;;;3.10;99.90;;;;;;5030985;28;20025;-70
2024/02/13 05:20:44;;;;;;;31.83;2.65;;;3.10;99.90;;;;;;5030082;28;20021;-70
2024/02/13 05:23:12;;;;;;;8.48;1.98;;;3.10;99.90;;;;;;5012369;28;20028;-70
2024/02/13 05:25:39;;;;;;;2.47;1.63;;;3.10;99.90;;;;;;5029982;28;20026;-70
2024/02/13 05:28:05;;;;;;;12.43;1.80;;;3.20;99.90;;;;;;5035238;28;20048;-70
2024/02/13 05:30:32;;;;;;;4.18;2.67;;;3.30;99.90;;;;;;5030951;28;20032;-71
2024/02/13 05:32:58;;;;;;;7.45;2.15;;;3.30;99.90;;;;;;5031657;28;20108;-70
2024/02/13 05:35:24;;;;;;;1.38;1.25;;;3.50;99.90;;;;;;5033161;28;20028;-70
2024/02/13 05:37:51;;;;;;;1.77;1.23;;;3.50;99.90;;;;;;5030621;28;20091;-70
2024/02/13 05:40:18;;;;;;;5.65;1.85;;;3.30;99.90;;;;;;5033606;28;20099;-70
2024/02/13 05:42:44;;;;;;;2.03;1.30;;;3.30;99.90;;;;;;5049812;28;20029;-70
2024/02/13 05:45:10;;;;;;;6.15;1.67;;;3.30;99.90;;;;;;5033363;28;20048;-70
2024/02/13 05:47:37;;;;;;;6.93;1.83;;;3.30;99.90;;;;;;5034633;28;20026;-70
2024/02/13 05:50:06;;;;;;;8.05;2.63;;;3.10;99.90;;;;;;5032540;28;20032;-71
2024/02/13 05:52:34;;;;;;;4.82;1.58;;;3.10;99.90;;;;;;5030825;28;20648;-70
2024/02/13 05:54:59;;;;;;;2.08;1.60;;;3.10;99.90;;;;;;5032724;28;20551;-70
2024/02/13 05:57:25;;;;;;;5.85;1.58;;;3.00;99.90;;;;;;5031669;28;20029;-70
2024/02/13 05:59:51;;;;;;;3.92;2.45;;;3.10;99.90;;;;;;5035508;28;20022;-70
2024/02/13 06:02:17;;;;;;;5.10;2.17;;;3.20;99.90;;;;;;5033401;28;20079;-70
2024/02/13 06:04:43;;;;;;;2.22;1.40;;;3.20;99.90;;;;;;5034348;28;20462;-71
2024/02/13 06:07:09;;;;;;;8.55;2.80;;;3.20;99.90;;;;;;5035260;28;20369;-71
2024/02/13 06:09:38;;;;;;;2.35;1.60;;;3.20;99.90;;;;;;5035361;28;20063;-70
2024/02/13 06:12:06;;;;;;;5.32;2.05;;;3.30;99.90;;;;;;5017233;28;20033;-72
2024/02/13 06:14:33;;;;;;;4.10;1.88;;;3.30;99.90;;;;;;5029570;28;20034;-70
2024/02/13 06:16:59;;;;;;;3.05;1.50;;;3.30;99.90;;;;;;5037338;28;20037;-70
2024/02/13 06:19:25;;;;;;;2.78;2.05;;;3.40;99.90;;;;;;5046721;28;20025;-71
2024/02/13 06:21:51;;;;;;;6.78;2.90;;;3.40;99.90;;;;;;5011261;28;20041;-70
2024/02/13 06:24:18;;;;;;;3.28;1.63;;;3.50;99.90;;;;;;5034579;28;20469;-70
2024/02/13 06:26:48;;;;;;;4.10;2.28;;;3.50;99.90;;;;;;5044654;28;20045;-69
2024/02/13 06:29:17;;;;;;;2.45;1.83;;;3.40;99.90;;;;;;5025303;28;20316;-70
2024/02/13 06:31:43;;;;;;;4.80;2.63;;;3.50;99.90;;;;;;5031754;28;20127;-70
2024/02/13 06:34:09;;;;;;;15.63;2.90;;;3.40;99.90;;;;;;5030641;28;20049;-70
2024/02/13 06:36:35;;;;;;;8.32;2.17;;;3.50;99.90;;;;;;5055279;28;20033;-70
2024/02/13 06:39:02;;;;;;;15.60;2.90;;;3.50;99.90;;;;;;5034940;28;20036;-70
2024/02/13 06:41:28;;;;;;;2.95;2.00;;;3.40;99.90;;;;;;5042924;28;20036;-70
2024/02/13 06:43:54;;;;;;;6.97;2.05;;;3.40;99.90;;;;;;5038159;28;20034;-70
2024/02/13 06:46:20;;;;;;;3.10;2.38;;;3.40;99.90;;;;;;5041011;28;20034;-70
2024/02/13 06:48:47;;;;;;;4.10;2.88;;;3.50;99.90;;;;;;5037411;28;20026;-70
2024/02/13 06:51:13;;;;;;;3.28;2.20;;;3.40;99.90;;;;;;5039409;28;20038;-70
2024/02/13 06:53:39;;;;;;;7.93;2.55;;;3.40;99.90;;;;;;5024719;28;20474;-70
2024/02/13 06:56:06;;;;;;;6.22;2.45;;;3.40;99.90;;;;;;5048073;28;20145;-70
2024/02/13 06:58:32;;;;;;;3.55;2.55;;;3.40;99.90;;;;;;5033844;28;20049;-70
2024/02/13 07:00:57;;;;;;;3.13;2.42;;;3.30;99.90;;;;;;5037396;28;20030;-71
2024/02/13 07:03:23;;;;;;;6.60;3.30;;;3.40;99.90;;;;;;5038595;28;20031;-70
2024/02/13 07:05:49;;;;;;;4.55;2.03;;;3.40;99.90;;;;;;5029524;28;20063;-70
2024/02/13 07:08:15;;;;;;;4.40;2.42;;;3.30;99.90;;;;;;5032531;28;20025;-70
2024/02/13 07:10:42;;;;;;;5.30;2.25;;;3.30;99.90;;;;;;5047586;28;20021;-53
2024/02/13 07:13:07;;;;;;;3.13;2.47;;;3.60;99.90;;;;;;5030730;28;20022;-54
2024/02/13 07:15:35;;;;;;;4.88;2.50;;;3.70;99.90;;;;;;5047572;28;20040;-51
2024/02/13 07:18:03;;;;;;;3.65;1.88;;;3.60;99.90;;;;;;5039985;28;20032;-53
2024/02/13 07:20:29;;;;;;;4.43;2.58;;;4.10;99.90;;;;;;5046628;28;20021;-56
2024/02/13 07:22:55;;;;;;;1.27;1.13;;;4.10;99.90;;;;;;5030946;28;20037;-50
2024/02/13 07:25:21;;;;;;;14.60;2.60;;;4.00;99.90;;;;;;5020601;28;20084;-52
2024/02/13 07:27:49;;;;;;;3.00;1.42;;;3.90;99.90;;;;;;5028958;28;20033;-52
2024/02/13 07:30:15;;;;;;;7.30;2.47;;;3.80;99.90;;;;;;5034966;28;20077;-50
2024/02/13 07:32:41;;;;;;;8.20;2.17;;;3.90;99.90;;;;;;5035215;28;20029;-63
2024/02/13 07:35:09;;;;;;;4.68;1.77;;;3.90;99.90;;;;;;5045963;28;20029;-67
2024/02/13 07:37:34;;;;;;;8.75;2.05;;;4.20;99.90;;;;;;5055890;28;20179;-67
2024/02/13 07:40:02;;;;;;;13.73;2.45;;;4.30;99.90;;;;;;5031783;28;20556;-67
2024/02/13 07:42:28;;;;;;;3.45;2.97;;;4.20;99.90;;;;;;5037860;28;20033;-67
2024/02/13 07:44:55;;;;;;;24.10;3.28;;;4.30;99.90;;;;;;5031759;28;20053;-67
2024/02/13 07:47:21;;;;;;;5.03;3.17;;;4.10;99.90;;;;;;5040152;28;20096;-67
2024/02/13 07:49:48;;;;;;;4.35;1.80;;;4.20;99.90;;;;;;5053669;28;20098;-68
2024/02/13 07:52:17;;;;;;;16.10;3.17;;;4.10;99.90;;;;;;5031994;28;20659;-68
2024/02/13 07:54:47;;;;;;;2.95;2.35;;;4.20;99.90;;;;;;5045252;28;20033;-68
2024/02/13 07:57:18;;;;;;;3.90;2.22;;;4.20;99.90;;;;;;5024005;28;20108;-68
2024/02/13 07:59:44;;;;;;;10.23;3.00;;;4.20;99.90;;;;;;5032752;28;20658;-68
2024/02/13 08:02:12;;;;;;;5.22;2.72;;;4.20;99.90;;;;;;5040696;28;20354;-68
2024/02/13 08:04:39;;;;;;;8.73;3.88;;;4.20;99.90;;;;;;5029678;28;20113;-68
2024/02/13 08:07:07;;;;;;;3.95;3.55;;;4.30;99.90;;;;;;5032087;28;20040;-68
2024/02/13 08:09:33;;;;;;;6.45;3.28;;;4.30;99.90;;;;;;5046582;28;20025;-67
2024/02/13 08:12:05;;;;;;;16.70;2.95;;;4.40;99.90;;;;;;5031696;28;20038;-68
2024/02/13 08:14:32;;;;;;;;;;;4.50;99.90;;;;;;5036102;28;20048;-68
2024/02/13 08:16:58;;;;;;;3.90;2.47;;;4.60;99.90;;;;;;5041606;28;19908;-67
2024/02/13 08:19:26;;;;;;;6.03;2.92;;;4.60;99.90;;;;;;5030709;28;20056;-68
2024/02/13 08:21:52;;;;;;;5.93;3.08;;;4.70;99.90;;;;;;5039622;28;20433;-67
2024/02/13 08:24:18;;;;;;;5.30;3.08;;;4.80;99.90;;;;;;5047719;28;20369;-67
2024/02/13 08:26:43;;;;;;;9.38;4.78;;;4.90;99.90;;;;;;5047034;28;20030;-68
2024/02/13 08:29:09;;;;;;;4.53;2.08;;;5.00;99.90;;;;;;5046176;28;20026;-68
2024/02/13 08:31:36;;;;;;;3.50;2.45;;;5.00;99.90;;;;;;5031441;28;20476;-67
2024/02/13 08:34:02;;;;;;;7.88;2.75;;;5.10;99.90;;;;;;5044900;28;20041;-68
2024/02/13 08:36:29;;;;;;;5.10;2.58;;;5.10;99.90;;;;;;5031474;28;20083;-68
2024/02/13 08:38:55;;;;;;;5.50;2.65;;;5.30;99.90;;;;;;5030917;28;20060;-68
2024/02/13 08:41:22;;;;;;;4.60;2.05;;;5.40;99.90;;;;;;5037277;28;20033;-69
2024/02/13 08:43:48;;;;;;;5.50;2.67;;;5.40;99.90;;;;;;5042119;28;20026;-68
2024/02/13 08:46:19;;;;;;;5.97;3.70;;;5.50;99.90;;;;;;5050356;28;20029;-68
2024/02/13 08:48:45;;;;;;;3.83;2.58;;;5.50;99.90;;;;;;5042322;28;20087;-68
2024/02/13 08:51:13;;;;;;;5.72;3.17;;;5.50;99.90;;;;;;5031336;28;20432;-68
2024/02/13 08:53:39;;;;;;;5.65;2.83;;;5.60;99.90;;;;;;5029701;28;20478;-68
2024/02/13 08:56:05;;;;;;;10.85;2.38;;;5.60;99.90;;;;;;5031137;28;20156;-68
2024/02/13 08:58:31;;;;;;;6.75;3.53;;;5.70;99.90;;;;;;5042932;28;20030;-68
2024/02/13 09:00:57;;;;;;;7.10;3.28;;;5.70;99.90;;;;;;5029801;28;20400;-69
2024/02/13 09:03:24;;;;;;;8.63;2.67;;;5.80;99.90;;;;;;5034389;28;20029;-69
2024/02/13 09:05:50;;;;;;;7.43;3.75;;;5.90;99.90;;;;;;5030909;28;20034;-68
2024/02/13 09:08:16;;;;;;;5.00;3.10;;;6.00;99.90;;;;;;5041844;28;20437;-69
2024/02/13 09:10:42;;;;;;;11.18;4.60;;;6.00;99.90;;;;;;5035699;28;20069;-68
2024/02/13 09:13:08;;;;;;;4.50;3.17;;;6.10;99.90;;;;;;5049183;28;20067;-68
2024/02/13 09:15:33;;;;;;;9.52;3.55;;;6.20;99.90;;;;;;5039013;28;20030;-68
2024/02/13 09:17:59;;;;;;;6.10;3.92;;;6.30;99.90;;;;;;5033264;28;20030;-67
2024/02/13 09:20:25;;;;;;;6.93;3.40;;;6.40;99.90;;;;;;5043568;28;20047;-67
2024/02/13 09:22:51;;;;;;;8.60;3.03;;;6.50;99.90;;;;;;5043014;28;20028;-68
2024/02/13 09:25:19;;;;;;;10.07;3.08;;;6.60;99.90;;;;;;5034261;28;20025;-68
2024/02/13 09:27:48;;;;;;;9.95;3.55;;;6.70;99.90;;;;;;5035014;28;20033;-67
2024/02/13 09:30:16;;;;;;;6.32;3.08;;;6.80;99.90;;;;;;5032145;28;20026;-68
2024/02/13 09:32:47;;;;;;;8.15;3.58;;;6.90;99.90;;;;;;5033659;28;20030;-67
2024/02/13 09:35:13;;;;;;;6.03;3.08;;;6.90;99.90;;;;;;5033631;28;20025;-67
2024/02/13 09:37:40;;;;;;;5.68;2.88;;;7.00;99.90;;;;;;5034218;28;20496;-67
2024/02/13 09:40:14;;;;;;;9.50;3.50;;;7.00;99.90;;;;;;5032892;28;20034;-67
2024/02/13 09:42:45;;;;;;;6.28;2.50;;;7.00;99.90;;;;;;5048901;28;20108;-67
2024/02/13 09:45:13;;;;;;;5.72;2.63;;;7.10;99.90;;;;;;5048505;28;20029;-67
2024/02/13 09:47:42;;;;;;;5.32;2.97;;;7.20;99.90;;;;;;5033109;28;20033;-67
2024/02/13 09:50:12;;;;;;;6.20;2.50;;;7.40;99.90;;;;;;5049464;28;20109;-68
2024/02/13 09:52:54;;;;;;;4.38;2.78;;;7.50;99.90;;;;;;5034159;28;20404;-67
2024/02/13 09:55:21;;;;;;;7.95;2.80;;;7.70;99.90;;;;;;5031787;28;20021;-68
2024/02/13 09:57:49;;;;;;;5.95;2.80;;;7.90;99.90;;;;;;5033014;28;20079;-67
2024/02/13 10:00:18;;;;;;;4.05;2.38;;;7.90;99.90;;;;;;5031512;28;20052;-68
2024/02/13 10:02:47;;;;;;;5.50;2.75;;;8.20;99.90;;;;;;5033385;28;20092;-68
2024/02/13 10:05:13;;;;;;;10.93;3.20;;;8.30;99.90;;;;;;5031790;28;20056;-68
2024/02/13 10:07:40;;;;;;;6.30;3.55;;;8.30;99.90;;;;;;5040737;28;20025;-68
2024/02/13 10:10:11;;;;;;;7.03;3.03;;;8.10;99.90;;;;;;5033927;28;20032;-67
2024/02/13 10:12:54;;;;;;;7.18;2.78;;;8.40;99.90;;;;;;5040099;28;20032;-67
2024/02/13 10:15:24;;;;;;;8.05;2.67;;;8.70;99.90;;;;;;5042863;28;20091;-67
2024/02/13 10:17:54;;;;;;;5.57;2.08;;;9.00;99.90;;;;;;5045606;28;20064;-67
2024/02/13 10:20:20;;;;;;;5.03;1.85;;;9.90;99.90;;;;;;5048016;28;20052;-68
2024/02/13 10:22:47;;;;;;;3.85;2.38;;;12.40;99.90;;;;;;5033747;28;20342;-67
2024/02/13 10:25:21;;;;;;;3.88;1.92;;;12.80;99.90;;;;;;5055311;28;20030;-67
2024/02/13 10:27:53;;;;;;;3.15;2.00;;;12.50;99.90;;;;;;5033786;28;20353;-68
2024/02/13 10:30:23;;;;;;;10.10;1.90;;;10.80;99.90;;;;;;5033258;28;20036;-68
2024/02/13 10:32:48;;;;;;;7.43;2.55;;;10.10;99.90;;;;;;5048292;28;20025;-70
2024/02/13 10:35:16;;;;;;;8.02;1.98;;;10.30;99.90;;;;;;5040727;28;20045;-68
2024/02/13 10:37:44;;;;;;;4.22;2.30;;;10.50;99.90;;;;;;5040773;28;20037;-68
2024/02/13 10:40:19;;;;;;;2.65;1.63;;;10.50;99.90;;;;;;5032617;28;20051;-69
2024/02/13 10:42:45;;;;;;;3.97;1.77;;;10.00;99.90;;;;;;5031924;28;20037;-69
2024/02/13 10:45:14;;;;;;;3.45;1.85;;;10.40;99.90;;;;;;5048771;28;20025;-68
2024/02/13 10:47:49;;;;;;;9.32;1.70;;;10.90;99.90;;;;;;5048412;28;20057;-68
2024/02/13 10:50:15;;;;;;;4.88;1.73;;;10.60;99.90;;;;;;5046353;28;20033;-68
2024/02/13 10:52:44;;;;;;;3.67;1.58;;;10.90;99.90;;;;;;5032883;28;20473;-68
2024/02/13 10:55:12;;;;;;;3.30;1.77;;;11.90;99.90;;;;;;5054834;28;20041;-68
2024/02/13 10:57:38;;;;;;;2.15;1.15;;;11.30;99.90;;;;;;5054971;28;20021;-68
2024/02/13 11:00:08;;;;;;;4.32;1.77;;;12.60;99.90;;;;;;5031518;28;20033;-67
2024/02/13 11:02:38;;;;;;;3.88;1.48;;;11.80;99.90;;;;;;5047296;28;20409;-68
2024/02/13 11:05:06;;;;;;;5.88;1.42;;;11.70;99.90;;;;;;5030914;28;20037;-67
2024/02/13 11:07:33;;;;;;;3.50;0.95;;;10.90;99.90;;;;;;5032708;28;20025;-67
2024/02/13 11:10:00;;;;;;;8.57;1.35;;;10.80;99.90;;;;;;5047132;28;20026;-68
2024/02/13 11:12:26;;;;;;;6.75;1.60;;;11.70;99.90;;;;;;5047097;28;20037;-68
2024/02/13 11:14:52;;;;;;;8.48;2.47;;;12.50;99.90;;;;;;5046295;28;20034;-68
2024/02/13 11:17:17;;;;;;;5.90;1.23;;;12.50;99.90;;;;;;5039152;28;20025;-68
2024/02/13 11:19:48;;;;;;;1.83;1.10;;;13.10;99.90;;;;;;5031188;28;20036;-68
2024/02/13 11:22:15;;;;;;;5.17;0.97;;;13.30;99.40;;;;;;5039144;28;20507;-67
2024/02/13 11:25:00;;;;;;;5.18;1.33;;;13.30;99.60;;;;;;5045880;28;20338;-68
2024/02/13 11:27:26;;;;;;;3.55;1.23;;;13.60;99.30;;;;;;5025733;28;20029;-68
2024/02/13 11:30:00;;;;;;;1.73;1.15;;;15.80;95.20;;;;;;5031426;28;20406;-67
2024/02/13 11:32:29;;;;;;;6.35;1.80;;;14.90;93.50;;;;;;5054852;28;20028;-68
2024/02/13 11:34:59;;;;;;;4.18;1.08;;;15.00;93.10;;;;;;5045214;28;20026;-67
2024/02/13 11:37:30;;;;;;;14.00;1.55;;;14.00;95.00;;;;;;5052336;28;20029;-67
2024/02/13 11:39:58;;;;;;;2.75;1.00;;;12.00;99.70;;;;;;5032598;28;20026;-67
2024/02/13 11:42:34;;;;;;;3.60;1.23;;;11.50;99.90;;;;;;5046701;28;20033;-67
2024/02/13 11:45:05;;;;;;;5.93;1.00;;;11.10;99.90;;;;;;5045992;28;20040;-70
2024/02/13 11:47:32;;;;;;;3.65;1.67;;;11.30;99.90;;;;;;5046605;28;20018;-67
2024/02/13 11:49:59;;;;;;;2.28;0.80;;;10.70;99.90;;;;;;5029444;28;20040;-66
2024/02/13 11:52:25;;;;;;;3.78;0.90;;;10.40;99.90;;;;;;5035343;28;20102;-71
2024/02/13 11:54:51;;;;;;;4.32;1.10;;;10.60;99.90;;;;;;5032243;28;20076;-68
2024/02/13 11:57:19;;;;;;;7.28;1.17;;;10.70;99.90;;;;;;5046008;28;20041;-68
2024/02/13 12:00:12;;;;;;;1.20;0.80;;;10.80;99.90;;;;;;5045334;28;20406;-68
2024/02/13 12:02:39;;;;;;;2.78;0.95;;;10.80;99.90;;;;;;5024373;28;20029;-67
2024/02/13 12:05:11;;;;;;;1.17;0.75;;;11.00;99.90;;;;;;5033870;28;20040;-67
2024/02/13 12:07:41;;;;;;;2.15;1.15;;;10.90;99.90;;;;;;5045531;28;20094;-68
2024/02/13 12:10:12;;;;;;;1.92;1.17;;;12.20;99.90;;;;;;5038480;28;20156;-68
2024/02/13 12:12:40;;;;;;;2.30;0.65;;;13.00;97.50;;;;;;5037945;28;20526;-67
2024/02/13 12:15:10;;;;;;;1.17;0.60;;;13.10;96.30;;;;;;5045017;28;20033;-67
2024/02/13 12:17:38;;;;;;;0.98;0.68;;;15.30;95.10;;;;;;5045089;28;20116;-68
2024/02/13 12:20:12;;;;;;;1.45;0.63;;;17.20;85.80;;;;;;5030413;28;20029;-67
2024/02/13 12:22:43;;;;;;;0.77;0.60;;;15.30;87.60;;;;;;5035263;28;20020;-67
2024/02/13 12:25:08;;;;;;;2.45;1.00;;;15.00;90.10;;;;;;5032157;28;20034;-68
2024/02/13 12:27:34;;;;;;;7.28;1.67;;;14.20;91.10;;;;;;5036422;28;20029;-68
2024/02/13 12:30:03;;;;;;;1.75;1.00;;;14.30;92.90;;;;;;5046686;28;20056;-68
2024/02/13 12:32:34;;;;;;;4.32;1.08;;;14.40;92.50;;;;;;5045928;28;20032;-68
2024/02/13 12:35:32;;;;;;;2.97;1.30;;;13.90;92.00;;;;;;5046049;28;20033;-68
2024/02/13 12:37:52;;;;;;;3.05;1.38;;;13.50;93.30;;;;;;5026540;28;20103;-67
2024/02/13 12:40:18;;;;;;;3.25;0.80;;;13.80;92.70;;;;;;5046854;28;20033;-67
2024/02/13 12:42:45;;;;;;;3.63;1.00;;;14.80;92.50;;;;;;5053259;28;20758;-68
2024/02/13 12:45:10;;;;;;;1.20;0.52;;;14.40;91.80;;;;;;5047971;28;20036;-67
2024/02/13 12:47:36;;;;;;;1.17;0.50;;;13.60;91.40;;;;;;5045114;28;20021;-67
2024/02/13 12:50:03;;;;;;;3.50;0.35;;;13.70;92.30;;;;;;5032332;28;20041;-67
2024/02/13 12:52:29;;;;;;;5.63;0.60;;;13.10;92.90;;;;;;5045251;28;20022;-67
2024/02/13 12:54:58;;;;;;;0.73;0.30;;;12.70;94.20;;;;;;5038659;28;20478;-67
2024/02/13 12:57:29;;;;;;;3.60;0.40;;;11.50;97.00;;;;;;5045075;28;20037;-66
2024/02/13 12:59:55;;;;;;;;;;;10.60;99.90;;;;;;5039391;28;20029;-67